createdAt,value
2022-12-23T00:00:39.327Z,2.20
2022-12-23T00:03:06.364Z,1.80
2022-12-23T00:05:38.511Z,1.77
2022-12-23T00:08:06.623Z,1.80
2022-12-23T00:10:37.777Z,2.25
2022-12-23T00:13:23.146Z,1.83
2022-12-23T00:15:49.634Z,2.50
2022-12-23T00:18:16.200Z,2.80
2022-12-23T00:20:42.782Z,2.15
2022-12-23T00:23:09.287Z,4.45
2022-12-23T00:25:41.192Z,4.10
2022-12-23T00:28:14.709Z,5.82
2022-12-23T00:31:04.904Z,6.22
2022-12-23T00:33:40.075Z,8.65
2022-12-23T00:36:27.739Z,9.82
2022-12-23T00:39:14.249Z,3.35
2022-12-23T00:41:59.446Z,1.75
2022-12-23T00:44:26.477Z,2.08
2022-12-23T00:46:53.493Z,1.42
2022-12-23T00:49:39.633Z,1.48
2022-12-23T00:52:08.526Z,1.67
2022-12-23T00:54:35.239Z,2.00
2022-12-23T00:57:02.467Z,1.70
2022-12-23T00:59:29.049Z,1.45
2022-12-23T01:02:14.706Z,1.88
2022-12-23T01:04:59.982Z,2.25
2022-12-23T01:07:26.477Z,2.15
2022-12-23T01:09:52.994Z,2.13
2022-12-23T01:12:19.703Z,1.92
2022-12-23T01:14:46.311Z,1.30
2022-12-23T01:17:13.140Z,2.83
2022-12-23T01:19:40.243Z,2.08
2022-12-23T01:22:06.827Z,2.67
2022-12-23T01:24:33.868Z,2.50
2022-12-23T01:27:00.954Z,2.10
2022-12-23T01:29:28.861Z,1.27
2022-12-23T01:31:55.713Z,1.60
2022-12-23T01:34:22.597Z,1.80
2022-12-23T01:36:49.159Z,2.08
2022-12-23T01:39:15.782Z,1.35
2022-12-23T01:42:00.788Z,1.20
2022-12-23T01:44:45.783Z,1.30
2022-12-23T01:47:16.863Z,1.00
2022-12-23T01:49:43.781Z,1.10
2022-12-23T01:52:11.907Z,3.20
2022-12-23T01:54:39.279Z,6.30
2022-12-23T01:57:05.993Z,9.57
2022-12-23T01:59:51.522Z,9.05
2022-12-23T02:02:36.821Z,7.93
2022-12-23T02:05:03.587Z,8.85
2022-12-23T02:07:50.187Z,6.32
2022-12-23T02:10:16.999Z,7.60
2022-12-23T02:12:57.985Z,7.72
2022-12-23T02:16:06.184Z,6.20
2022-12-23T02:18:46.817Z,5.07
2022-12-23T02:21:19.414Z,3.10
2022-12-23T02:23:56.873Z,1.63
2022-12-23T02:27:06.129Z,1.50
2022-12-23T02:29:56.682Z,2.10
2022-12-23T02:32:32.245Z,4.80
2022-12-23T02:35:10.922Z,6.47
2022-12-23T02:37:43.856Z,5.30
2022-12-23T02:40:20.623Z,7.10
2022-12-23T02:43:04.714Z,7.03
2022-12-23T02:48:34.380Z,6.03
2022-12-23T02:51:03.964Z,4.95
2022-12-23T02:53:45.799Z,4.40
2022-12-23T02:56:14.973Z,2.75
2022-12-23T02:58:47.769Z,3.13
2022-12-23T03:01:16.493Z,3.10
2022-12-23T03:03:45.792Z,3.10
2022-12-23T03:06:21.720Z,3.45
2022-12-23T03:08:51.053Z,3.00
2022-12-23T03:11:18.475Z,3.08
2022-12-23T03:14:32.957Z,4.97
2022-12-23T03:17:20.753Z,6.53
2022-12-23T03:19:57.828Z,6.85
2022-12-23T03:22:38.483Z,6.80
2022-12-23T03:25:25.459Z,7.13
2022-12-23T03:28:25.540Z,7.93
2022-12-23T03:30:57.403Z,6.55
2022-12-23T03:33:31.714Z,6.90
2022-12-23T03:36:09.811Z,3.88
2022-12-23T03:38:41.393Z,4.05
2022-12-23T03:41:17.388Z,3.83
2022-12-23T03:43:51.266Z,3.90
2022-12-23T03:46:29.528Z,2.92
2022-12-23T03:49:04.360Z,2.78
2022-12-23T03:51:44.313Z,2.00
2022-12-23T03:54:17.060Z,7.40
2022-12-23T03:56:51.530Z,5.53
2022-12-23T03:59:22.313Z,7.57
2022-12-23T04:02:23.656Z,5.20
2022-12-23T04:05:19.712Z,5.53
2022-12-23T04:08:11.241Z,5.47
2022-12-23T04:10:38.042Z,7.28
2022-12-23T04:13:04.847Z,5.32
2022-12-23T04:15:31.904Z,6.28
2022-12-23T04:17:58.813Z,5.93
2022-12-23T04:20:25.915Z,6.25
2022-12-23T04:22:52.495Z,8.13
2022-12-23T04:25:19.280Z,6.75
2022-12-23T04:27:45.917Z,6.47
2022-12-23T04:30:16.306Z,6.35
2022-12-23T04:32:42.868Z,6.95
2022-12-23T04:35:10.513Z,7.78
2022-12-23T04:37:37.834Z,7.05
2022-12-23T04:40:05.653Z,6.70
2022-12-23T04:42:32.268Z,6.53
2022-12-23T04:44:59.044Z,11.13
2022-12-23T04:47:25.773Z,8.60
2022-12-23T04:49:52.274Z,6.45
2022-12-23T04:52:18.923Z,10.77
2022-12-23T04:54:46.534Z,7.45
2022-12-23T04:57:13.898Z,5.43
2022-12-23T04:59:40.435Z,11.07
2022-12-23T05:02:08.099Z,10.95
2022-12-23T05:04:35.091Z,8.68
2022-12-23T05:07:01.769Z,6.22
2022-12-23T05:09:28.500Z,6.18
2022-12-23T05:11:55.408Z,8.65
2022-12-23T05:14:21.920Z,9.15
2022-12-23T05:16:48.501Z,8.57
2022-12-23T05:19:15.263Z,7.70
2022-12-23T05:21:41.795Z,7.97
2022-12-23T05:24:08.442Z,8.07
2022-12-23T05:26:35.011Z,7.03
2022-12-23T05:29:01.544Z,7.07
2022-12-23T05:31:28.180Z,6.35
2022-12-23T05:33:54.789Z,14.13
2022-12-23T05:36:21.862Z,5.95
2022-12-23T05:38:48.505Z,9.35
2022-12-23T05:41:16.862Z,14.10
2022-12-23T05:43:43.409Z,7.43
2022-12-23T05:46:10.003Z,5.22
2022-12-23T05:48:36.579Z,8.40
2022-12-23T05:51:03.176Z,7.32
2022-12-23T05:53:29.770Z,5.93
2022-12-23T05:55:56.355Z,11.45
2022-12-23T05:58:22.906Z,4.68
2022-12-23T06:00:49.465Z,8.88
2022-12-23T06:03:16.127Z,7.25
2022-12-23T06:05:43.887Z,9.95
2022-12-23T06:08:10.479Z,9.55
2022-12-23T06:10:37.157Z,10.38
2022-12-23T06:13:03.714Z,9.20
2022-12-23T06:15:30.275Z,7.90
2022-12-23T06:17:56.851Z,8.68
2022-12-23T06:20:23.378Z,6.43
2022-12-23T06:22:49.972Z,5.57
2022-12-23T06:25:16.676Z,6.80
2022-12-23T06:27:43.237Z,7.35
2022-12-23T06:30:10.435Z,7.75
2022-12-23T06:32:38.832Z,7.72
2022-12-23T06:35:07.343Z,8.05
2022-12-23T06:37:34.269Z,7.25
2022-12-23T06:40:00.856Z,7.32
2022-12-23T06:42:27.390Z,6.00
2022-12-23T06:44:53.919Z,6.82
2022-12-23T06:47:20.629Z,7.63
2022-12-23T06:49:47.210Z,10.52
2022-12-23T06:52:13.742Z,7.03
2022-12-23T06:54:40.251Z,9.20
2022-12-23T06:57:06.804Z,7.70
2022-12-23T06:59:33.323Z,7.63
2022-12-23T07:01:59.952Z,6.97
2022-12-23T07:04:26.651Z,6.50
2022-12-23T07:06:53.167Z,7.40
2022-12-23T07:09:19.729Z,5.80
2022-12-23T07:11:46.342Z,6.72
2022-12-23T07:14:12.838Z,5.22
2022-12-23T07:16:39.449Z,7.22
2022-12-23T07:19:06.103Z,10.30
2022-12-23T07:21:32.717Z,6.75
2022-12-23T07:23:59.320Z,10.55
2022-12-23T07:26:25.878Z,9.40
2022-12-23T07:28:52.480Z,5.25
2022-12-23T07:31:19.009Z,5.07
2022-12-23T07:33:45.748Z,10.70
2022-12-23T07:36:12.259Z,6.82
2022-12-23T07:38:38.798Z,8.43
2022-12-23T07:41:05.522Z,9.05
2022-12-23T07:43:32.043Z,7.68
2022-12-23T07:46:00.694Z,8.27
2022-12-23T07:48:27.992Z,10.55
2022-12-23T07:51:00.799Z,6.35
2022-12-23T07:53:27.667Z,10.90
2022-12-23T07:55:56.608Z,11.43
2022-12-23T07:58:23.839Z,10.40
2022-12-23T08:00:50.609Z,7.15
2022-12-23T08:03:17.375Z,6.88
2022-12-23T08:05:44.027Z,3.70
2022-12-23T08:08:10.602Z,5.57
2022-12-23T08:10:41.417Z,7.93
2022-12-23T08:13:11.097Z,6.95
2022-12-23T08:15:37.661Z,6.00
2022-12-23T08:18:04.310Z,6.30
2022-12-23T08:20:30.816Z,7.50
2022-12-23T08:22:57.321Z,4.82
2022-12-23T08:25:23.855Z,5.55
2022-12-23T08:27:51.320Z,7.03
2022-12-23T08:30:18.983Z,4.60
2022-12-23T08:32:45.535Z,7.18
2022-12-23T08:35:12.088Z,5.32
2022-12-23T08:37:38.685Z,6.57
2022-12-23T08:40:05.756Z,7.35
2022-12-23T08:42:32.315Z,6.13
2022-12-23T08:44:58.930Z,4.70
2022-12-23T08:47:25.432Z,5.28
2022-12-23T08:49:52.018Z,6.50
2022-12-23T08:52:18.565Z,5.20
2022-12-23T08:54:45.124Z,4.90
2022-12-23T08:57:11.659Z,6.25
2022-12-23T08:59:38.804Z,4.40
2022-12-23T09:02:05.494Z,6.35
2022-12-23T09:04:32.190Z,5.28
2022-12-23T09:06:58.796Z,5.70
2022-12-23T09:09:25.312Z,6.50
2022-12-23T09:11:51.821Z,6.40
2022-12-23T09:14:18.344Z,7.05
2022-12-23T09:16:44.975Z,6.68
2022-12-23T09:19:11.569Z,6.78
2022-12-23T09:21:38.066Z,6.50
2022-12-23T09:24:04.980Z,7.13
2022-12-23T09:26:31.776Z,6.40
2022-12-23T09:28:58.769Z,7.53
2022-12-23T09:31:30.444Z,6.35
2022-12-23T09:34:00.816Z,7.47
2022-12-23T09:36:27.396Z,9.10
2022-12-23T09:38:56.258Z,7.57
2022-12-23T09:41:38.435Z,6.90
2022-12-23T09:44:33.675Z,7.68
2022-12-23T09:47:04.696Z,7.45
2022-12-23T09:49:32.627Z,6.63
2022-12-23T09:52:03.806Z,6.93
2022-12-23T09:54:38.168Z,6.78
2022-12-23T09:57:23.134Z,8.63
2022-12-23T10:00:01.546Z,6.65
2022-12-23T10:02:31.282Z,7.55
2022-12-23T10:05:16.622Z,6.13
2022-12-23T10:08:32.740Z,6.75
2022-12-23T10:11:28.165Z,8.80
2022-12-23T10:14:09.876Z,7.93
2022-12-23T10:16:42.902Z,8.68
2022-12-23T10:19:20.384Z,6.82
2022-12-23T10:22:06.279Z,8.10
2022-12-23T10:24:42.446Z,7.15
2022-12-23T10:27:20.919Z,5.90
2022-12-23T10:29:47.467Z,8.13
2022-12-23T10:32:34.528Z,9.73
2022-12-23T10:35:15.754Z,6.57
2022-12-23T10:37:57.556Z,6.65
2022-12-23T10:40:33.087Z,6.57
2022-12-23T10:43:45.702Z,7.65
2022-12-23T10:46:29.226Z,10.82
2022-12-23T10:49:15.348Z,9.07
2022-12-23T10:51:52.649Z,9.60
2022-12-23T10:54:40.518Z,6.22
2022-12-23T10:57:08.605Z,8.88
2022-12-23T10:59:36.782Z,9.85
2022-12-23T11:02:12.730Z,7.65
2022-12-23T11:04:44.992Z,7.78
2022-12-23T11:07:44.021Z,7.85
2022-12-23T11:10:20.740Z,9.20
2022-12-23T11:12:53.023Z,7.78
2022-12-23T11:15:38.354Z,6.95
2022-12-23T11:18:19.505Z,7.78
2022-12-23T11:21:02.795Z,7.97
2022-12-23T11:23:35.993Z,8.77
2022-12-23T11:26:07.202Z,7.30
2022-12-23T11:28:37.631Z,5.40
2022-12-23T11:31:09.774Z,7.68
2022-12-23T11:33:40.028Z,5.18
2022-12-23T11:36:12.495Z,4.72
2022-12-23T11:39:06.858Z,7.43
2022-12-23T11:44:34.102Z,13.25
2022-12-23T11:47:25.344Z,9.60
2022-12-23T11:50:00.203Z,5.78
2022-12-23T11:52:32.584Z,6.35
2022-12-23T11:55:04.914Z,7.30
2022-12-23T11:57:43.196Z,8.02
2022-12-23T12:00:26.349Z,5.75
2022-12-23T12:02:57.014Z,5.23
2022-12-23T12:05:35.697Z,7.05
2022-12-23T12:08:06.903Z,5.32
2022-12-23T12:10:36.460Z,7.28
2022-12-23T12:13:06.629Z,9.63
2022-12-23T12:15:44.663Z,6.65
2022-12-23T12:18:17.389Z,8.60
2022-12-23T12:20:53.185Z,7.50
2022-12-23T12:23:28.785Z,7.93
2022-12-23T12:26:00.727Z,6.45
2022-12-23T12:28:38.768Z,6.55
2022-12-23T12:31:28.099Z,9.73
2022-12-23T12:33:57.973Z,9.05
2022-12-23T12:36:34.886Z,9.70
2022-12-23T12:39:01.491Z,8.82
2022-12-23T12:41:35.751Z,7.22
2022-12-23T12:44:38.697Z,9.27
2022-12-23T12:47:52.256Z,6.43
2022-12-23T12:50:20.335Z,5.95
2022-12-23T12:52:46.965Z,6.80
2022-12-23T12:55:16.389Z,11.23
2022-12-23T12:57:43.173Z,7.30
2022-12-23T13:00:18.959Z,6.75
2022-12-23T13:03:15.606Z,7.38
2022-12-23T13:05:51.696Z,11.23
2022-12-23T13:08:23.321Z,6.07
2022-12-23T13:11:24.911Z,7.47
2022-12-23T13:14:03.770Z,6.93
2022-12-23T13:16:45.671Z,8.77
2022-12-23T13:19:27.202Z,11.18
2022-12-23T13:22:08.960Z,7.43
2022-12-23T13:24:53.972Z,9.73
2022-12-23T13:27:33.959Z,11.88
2022-12-23T13:30:13.187Z,10.10
2022-12-23T13:32:51.687Z,10.00
2022-12-23T13:35:42.463Z,8.50
2022-12-23T13:38:36.625Z,7.68
2022-12-23T13:41:52.460Z,9.45
2022-12-23T13:44:20.596Z,8.65
2022-12-23T13:47:12.202Z,7.00
2022-12-23T13:49:41.502Z,6.20
2022-12-23T13:52:48.815Z,7.85
2022-12-23T13:55:47.841Z,7.20
2022-12-23T13:58:18.282Z,5.97
2022-12-23T14:00:44.982Z,6.35
2022-12-23T14:03:14.124Z,6.40
2022-12-23T14:05:51.654Z,8.43
2022-12-23T14:08:31.542Z,7.35
2022-12-23T14:11:19.989Z,7.72
2022-12-23T14:13:49.679Z,6.15
2022-12-23T14:16:22.002Z,5.82
2022-12-23T14:19:02.099Z,8.63
2022-12-23T14:21:40.341Z,7.35
2022-12-23T14:24:47.577Z,6.03
2022-12-23T14:27:42.632Z,8.15
2022-12-23T14:30:32.928Z,7.70
2022-12-23T14:33:02.560Z,10.52
2022-12-23T14:35:37.000Z,10.80
2022-12-23T14:38:14.407Z,9.07
2022-12-23T14:40:50.449Z,8.23
2022-12-23T14:43:23.335Z,8.20
2022-12-23T14:45:57.604Z,7.55
2022-12-23T14:48:37.107Z,8.52
2022-12-23T14:51:09.829Z,5.80
2022-12-23T14:53:57.264Z,11.15
2022-12-23T14:56:35.855Z,11.85
2022-12-23T14:59:23.845Z,11.77
2022-12-23T15:02:00.433Z,8.70
2022-12-23T15:04:47.946Z,6.05
2022-12-23T15:07:26.264Z,10.15
2022-12-23T15:10:00.668Z,6.65
2022-12-23T15:12:34.034Z,6.50
2022-12-23T15:15:04.806Z,6.47
2022-12-23T15:17:36.640Z,9.55
2022-12-23T15:20:23.455Z,10.27
2022-12-23T15:22:50.843Z,7.72
2022-12-23T15:25:26.657Z,8.43
2022-12-23T15:28:01.188Z,10.68
2022-12-23T15:30:35.328Z,10.35
2022-12-23T15:33:15.997Z,7.32
2022-12-23T15:35:52.888Z,9.38
2022-12-23T15:38:21.300Z,11.15
2022-12-23T15:41:00.530Z,8.77
2022-12-23T15:43:27.399Z,10.07
2022-12-23T15:45:54.297Z,8.13
2022-12-23T15:48:31.763Z,12.55
2022-12-23T15:51:57.775Z,11.55
2022-12-23T15:54:27.005Z,8.57
2022-12-23T15:56:56.151Z,10.80
2022-12-23T15:59:27.840Z,8.75
2022-12-23T16:01:55.240Z,11.15
2022-12-23T16:04:29.435Z,12.50
2022-12-23T16:06:56.299Z,10.05
2022-12-23T16:09:30.755Z,6.75
2022-12-23T16:11:58.821Z,7.05
2022-12-23T16:14:32.451Z,9.02
2022-12-23T16:19:51.798Z,5.93
2022-12-23T16:22:30.028Z,6.95
2022-12-23T16:24:56.512Z,7.35
2022-12-23T16:27:46.458Z,9.93
2022-12-23T16:30:24.134Z,8.40
2022-12-23T16:32:57.398Z,11.73
2022-12-23T16:35:30.640Z,10.88
2022-12-23T16:38:08.762Z,10.35
2022-12-23T16:40:35.426Z,10.77
2022-12-23T16:43:02.067Z,12.02
2022-12-23T16:45:32.060Z,14.27
2022-12-23T16:47:59.517Z,12.32
2022-12-23T16:50:27.054Z,8.52
2022-12-23T16:52:53.651Z,11.50
2022-12-23T16:55:20.748Z,11.30
2022-12-23T16:57:47.355Z,12.43
2022-12-23T17:00:17.470Z,12.02
2022-12-23T17:02:45.216Z,9.93
2022-12-23T17:05:17.276Z,9.30
2022-12-23T17:07:45.634Z,9.02
2022-12-23T17:10:14.560Z,8.10
2022-12-23T17:12:41.685Z,6.93
2022-12-23T17:15:12.666Z,9.43
2022-12-23T17:17:39.273Z,7.50
2022-12-23T17:20:09.333Z,9.40
2022-12-23T17:22:36.263Z,6.82
2022-12-23T17:25:03.161Z,8.25
2022-12-23T17:27:29.808Z,10.00
2022-12-23T17:29:56.356Z,9.10
2022-12-23T17:32:24.424Z,8.75
2022-12-23T17:34:51.246Z,9.25
2022-12-23T17:37:20.087Z,9.55
2022-12-23T17:39:47.791Z,6.72
2022-12-23T17:42:25.585Z,8.30
2022-12-23T17:44:52.534Z,8.90
2022-12-23T17:47:22.309Z,7.38
2022-12-23T18:33:08.739Z,9.20
2022-12-23T18:35:39.638Z,9.40
2022-12-23T18:38:06.237Z,12.10
2022-12-23T18:40:33.310Z,13.90
2022-12-23T18:43:00.322Z,13.65
2022-12-23T18:45:38.785Z,9.50
2022-12-23T18:48:07.288Z,10.57
2022-12-23T18:50:36.773Z,8.55
2022-12-23T18:53:04.181Z,9.07
2022-12-23T18:55:30.896Z,11.70
2022-12-23T18:57:59.450Z,11.63
2022-12-23T19:00:33.578Z,11.30
2022-12-23T19:03:00.239Z,10.57
2022-12-23T19:05:29.363Z,8.63
2022-12-23T19:07:57.702Z,10.32
2022-12-23T19:10:33.356Z,10.50
2022-12-23T19:13:00.803Z,9.05
2022-12-23T19:15:27.460Z,8.32
2022-12-23T19:17:54.129Z,9.10
2022-12-23T19:20:20.979Z,9.98
2022-12-23T19:22:48.817Z,11.15
2022-12-23T19:25:18.220Z,10.63
2022-12-23T19:27:46.080Z,11.13
2022-12-23T19:30:15.240Z,10.30
2022-12-23T19:32:41.807Z,11.60
2022-12-23T19:35:11.934Z,10.25
2022-12-23T19:37:38.513Z,8.25
2022-12-23T19:40:06.505Z,9.63
2022-12-23T19:42:33.967Z,7.72
2022-12-23T19:45:00.892Z,8.70
2022-12-23T19:47:27.485Z,9.38
2022-12-23T19:49:53.997Z,8.52
2022-12-23T19:52:20.558Z,9.65
2022-12-23T19:54:47.073Z,9.45
2022-12-23T19:57:13.643Z,10.82
2022-12-23T19:59:40.177Z,8.90
2022-12-23T20:02:06.815Z,9.50
2022-12-23T20:04:33.430Z,9.18
2022-12-23T20:06:59.948Z,8.43
2022-12-23T20:09:26.538Z,9.40
2022-12-23T20:11:53.105Z,6.50
2022-12-23T20:14:21.612Z,6.95
2022-12-23T20:16:48.604Z,9.02
2022-12-23T20:19:15.835Z,12.85
2022-12-23T20:21:42.817Z,10.60
2022-12-23T20:24:09.480Z,16.13
2022-12-23T20:26:36.115Z,11.35
2022-12-23T20:29:03.249Z,8.07
2022-12-23T20:31:31.764Z,7.28
2022-12-23T20:34:00.343Z,8.05
2022-12-23T20:36:30.009Z,9.85
2022-12-23T20:38:57.370Z,11.50
2022-12-23T20:41:26.296Z,9.38
2022-12-23T20:44:31.617Z,11.68
2022-12-23T20:46:40.162Z,10.23
2022-12-23T20:49:06.849Z,11.38
2022-12-23T20:51:33.362Z,11.20
2022-12-23T20:54:00.970Z,10.52
2022-12-23T20:56:29.366Z,13.32
2022-12-23T20:59:00.193Z,10.18
2022-12-23T21:01:30.934Z,10.20
2022-12-23T21:03:59.441Z,7.47
2022-12-23T21:06:27.119Z,7.68
2022-12-23T21:08:57.074Z,9.02
2022-12-23T21:11:23.772Z,7.35
2022-12-23T21:13:50.659Z,9.18
2022-12-23T21:16:17.500Z,8.63
2022-12-23T21:18:46.761Z,9.27
2022-12-23T21:21:13.308Z,9.43
2022-12-23T21:23:41.844Z,7.50
2022-12-23T21:26:14.608Z,8.07
2022-12-23T21:28:43.102Z,7.00
2022-12-23T21:31:10.610Z,7.85
2022-12-23T21:33:39.448Z,7.82
2022-12-23T21:36:07.478Z,8.40
2022-12-23T21:38:36.696Z,10.20
2022-12-23T21:41:06.365Z,10.57
2022-12-23T21:43:33.216Z,7.85
2022-12-23T21:46:05.545Z,9.07
2022-12-23T21:48:34.217Z,13.57
2022-12-23T21:51:21.752Z,12.00
2022-12-23T21:53:50.688Z,15.30
2022-12-23T21:56:19.908Z,11.63
2022-12-23T21:58:47.115Z,12.48
2022-12-23T22:01:19.131Z,13.65
2022-12-23T22:03:48.436Z,12.70
2022-12-23T22:06:21.470Z,10.05
2022-12-23T22:08:51.735Z,9.02
2022-12-23T22:11:21.648Z,12.27
2022-12-23T22:13:48.199Z,10.55
2022-12-23T22:16:17.430Z,8.80
2022-12-23T22:18:44.317Z,10.60
2022-12-23T22:21:14.860Z,6.93
2022-12-23T22:23:41.571Z,7.45
2022-12-23T22:26:10.558Z,7.40
2022-12-23T22:28:39.679Z,5.70
2022-12-23T22:31:29.936Z,8.65
2022-12-23T22:33:56.985Z,9.07
2022-12-23T22:36:23.627Z,8.43
2022-12-23T22:38:55.757Z,10.18
2022-12-23T22:41:23.337Z,7.82
2022-12-23T22:43:50.028Z,7.82
2022-12-23T22:46:18.397Z,8.30
2022-12-23T22:48:45.389Z,9.90
2022-12-23T22:51:15.727Z,8.82
2022-12-23T22:53:42.606Z,10.35
2022-12-23T22:56:11.782Z,8.90
2022-12-23T22:58:38.775Z,11.40
2022-12-23T23:01:06.005Z,9.30
2022-12-23T23:03:33.281Z,8.05
2022-12-23T23:06:03.359Z,9.95
2022-12-23T23:08:30.872Z,8.75
2022-12-23T23:10:59.922Z,10.02
2022-12-23T23:13:29.285Z,10.75
2022-12-23T23:15:56.371Z,12.60
2022-12-23T23:18:23.569Z,10.57
2022-12-23T23:20:50.721Z,8.60
2022-12-23T23:23:17.554Z,7.68
2022-12-23T23:25:44.225Z,6.53
2022-12-23T23:28:11.787Z,7.70
2022-12-23T23:30:39.497Z,7.75
2022-12-23T23:33:07.764Z,7.63
2022-12-23T23:35:35.123Z,7.38
2022-12-23T23:38:01.734Z,11.65
2022-12-23T23:40:28.431Z,7.55
2022-12-23T23:42:54.934Z,8.57
2022-12-23T23:45:21.516Z,13.10
2022-12-23T23:47:48.161Z,10.77
2022-12-23T23:50:15.290Z,10.63
2022-12-23T23:52:41.853Z,8.02
2022-12-23T23:55:08.934Z,9.35
2022-12-23T23:57:35.476Z,9.10
